createdAt,value
2023-05-19T00:00:09.494Z,138.86
2023-05-19T00:01:09.540Z,139.17
2023-05-19T00:02:09.678Z,139.06
2023-05-19T00:03:09.684Z,138.76
2023-05-19T00:04:09.673Z,135.46
2023-05-19T00:05:09.754Z,136.28
2023-05-19T00:06:09.804Z,137.14
2023-05-19T00:07:09.819Z,132.98
2023-05-19T00:08:09.866Z,135.72
2023-05-19T00:09:09.940Z,138.39
2023-05-19T00:10:09.985Z,137.04
2023-05-19T00:11:09.952Z,137.46
2023-05-19T00:12:10.029Z,138.07
2023-05-19T00:13:10.058Z,137.20
2023-05-19T00:14:10.090Z,134.71
2023-05-19T00:15:10.145Z,134.36
2023-05-19T00:16:10.235Z,135.14
2023-05-19T00:17:10.199Z,134.88
2023-05-19T00:18:10.302Z,139.86
2023-05-19T00:19:10.808Z,135.31
2023-05-19T00:20:10.347Z,134.03
2023-05-19T00:21:10.394Z,132.89
2023-05-19T00:22:10.436Z,134.62
2023-05-19T00:23:10.471Z,133.62
2023-05-19T00:24:10.526Z,132.63
2023-05-19T00:25:10.561Z,132.73
2023-05-19T00:26:10.595Z,131.88
2023-05-19T00:27:10.656Z,135.00
2023-05-19T00:28:10.716Z,129.41
2023-05-19T00:29:10.729Z,135.58
2023-05-19T00:30:10.761Z,134.09
2023-05-19T00:31:10.784Z,133.45
2023-05-19T00:32:10.906Z,135.04
2023-05-19T00:33:10.990Z,134.94
2023-05-19T00:34:10.950Z,132.96
2023-05-19T00:35:10.970Z,135.70
2023-05-19T00:36:11.024Z,133.37
2023-05-19T00:37:11.107Z,135.60
2023-05-19T00:38:11.142Z,130.65
2023-05-19T00:39:11.142Z,131.29
2023-05-19T00:40:11.225Z,132.19
2023-05-19T00:41:11.246Z,134.86
2023-05-19T00:42:11.298Z,134.90
2023-05-19T00:43:11.329Z,129.95
2023-05-19T00:44:11.387Z,133.40
2023-05-19T00:45:11.422Z,133.17
2023-05-19T00:46:11.516Z,134.53
2023-05-19T00:47:11.526Z,134.54
2023-05-19T00:48:11.582Z,134.83
2023-05-19T00:49:11.615Z,132.87
2023-05-19T00:50:11.648Z,133.34
2023-05-19T00:51:11.704Z,134.14
2023-05-19T00:52:11.727Z,130.70
2023-05-19T00:53:11.800Z,130.72
2023-05-19T00:54:11.823Z,128.75
2023-05-19T00:55:11.879Z,131.74
2023-05-19T00:56:11.906Z,130.24
2023-05-19T00:57:11.949Z,130.71
2023-05-19T00:58:11.996Z,129.72
2023-05-19T00:59:12.054Z,128.66
2023-05-19T01:00:12.076Z,128.58
2023-05-19T01:01:12.311Z,130.78
2023-05-19T01:02:12.144Z,128.71
2023-05-19T01:03:12.416Z,128.77
2023-05-19T01:04:12.311Z,130.00
2023-05-19T01:05:12.318Z,130.41
2023-05-19T01:06:12.439Z,129.25
2023-05-19T01:07:12.434Z,129.53
2023-05-19T01:08:12.437Z,129.87
2023-05-19T01:09:12.477Z,126.42
2023-05-19T01:10:12.539Z,130.28
2023-05-19T01:11:12.576Z,127.77
2023-05-19T01:12:12.662Z,127.38
2023-05-19T01:13:12.665Z,130.73
2023-05-19T01:14:12.711Z,125.54
2023-05-19T01:15:12.747Z,127.52
2023-05-19T01:16:12.960Z,129.01
2023-05-19T01:17:12.826Z,128.40
2023-05-19T01:18:12.938Z,129.42
2023-05-19T01:19:12.979Z,130.47
2023-05-19T01:20:13.003Z,130.14
2023-05-19T01:21:13.043Z,130.99
2023-05-19T01:22:13.175Z,130.39
2023-05-19T01:23:13.138Z,131.37
2023-05-19T01:24:13.140Z,130.84
2023-05-19T01:25:13.206Z,130.79
2023-05-19T01:26:13.261Z,131.35
2023-05-19T01:27:13.293Z,129.07
2023-05-19T01:28:13.399Z,129.41
2023-05-19T01:29:13.385Z,131.30
2023-05-19T01:30:13.438Z,131.93
2023-05-19T01:31:13.503Z,132.39
2023-05-19T01:32:13.612Z,125.37
2023-05-19T01:33:13.615Z,130.13
2023-05-19T01:34:13.653Z,126.22
2023-05-19T01:35:13.676Z,129.85
2023-05-19T01:36:13.737Z,127.05
2023-05-19T01:37:13.759Z,126.04
2023-05-19T01:38:13.801Z,126.83
2023-05-19T01:39:13.874Z,126.94
2023-05-19T01:40:13.872Z,127.31
2023-05-19T01:41:13.903Z,125.70
2023-05-19T01:42:13.987Z,124.87
2023-05-19T01:43:14.045Z,126.15
2023-05-19T01:44:14.069Z,128.43
2023-05-19T01:45:14.147Z,129.98
2023-05-19T01:46:14.211Z,127.35
2023-05-19T01:47:14.225Z,128.67
2023-05-19T01:48:14.351Z,127.87
2023-05-19T01:49:14.308Z,128.22
2023-05-19T01:50:14.391Z,123.18
2023-05-19T01:51:14.412Z,123.27
2023-05-19T01:52:14.467Z,126.25
2023-05-19T01:53:14.575Z,126.50
2023-05-19T01:54:14.589Z,128.24
2023-05-19T01:55:14.619Z,125.67
2023-05-19T01:56:14.689Z,125.77
2023-05-19T01:57:14.731Z,127.34
2023-05-19T01:58:14.777Z,125.36
2023-05-19T01:59:14.848Z,124.57
2023-05-19T02:00:14.939Z,124.63
2023-05-19T02:01:14.965Z,124.82
2023-05-19T02:02:14.976Z,122.99
2023-05-19T02:03:15.017Z,127.88
2023-05-19T02:04:15.136Z,124.59
2023-05-19T02:05:15.128Z,128.36
2023-05-19T02:06:15.196Z,126.53
2023-05-19T02:07:15.308Z,123.46
2023-05-19T02:08:15.301Z,121.51
2023-05-19T02:09:15.348Z,122.58
2023-05-19T02:10:15.375Z,122.50
2023-05-19T02:11:15.413Z,121.94
2023-05-19T02:12:15.517Z,124.56
2023-05-19T02:13:15.543Z,126.60
2023-05-19T02:14:15.616Z,125.54
2023-05-19T02:15:15.680Z,124.99
2023-05-19T02:16:15.737Z,125.56
2023-05-19T02:17:15.786Z,122.96
2023-05-19T02:18:15.798Z,123.67
2023-05-19T02:19:15.864Z,124.17
2023-05-19T02:20:16.808Z,122.70
2023-05-19T02:21:16.001Z,122.46
2023-05-19T02:22:16.002Z,121.92
2023-05-19T02:23:16.055Z,123.54
2023-05-19T02:24:16.096Z,120.78
2023-05-19T02:25:16.162Z,123.59
2023-05-19T02:26:16.198Z,123.38
2023-05-19T02:27:16.254Z,123.34
2023-05-19T02:28:16.275Z,122.92
2023-05-19T02:29:16.354Z,121.72
2023-05-19T02:30:16.361Z,120.80
2023-05-19T02:31:16.460Z,122.47
2023-05-19T02:32:16.608Z,123.54
2023-05-19T02:33:16.528Z,122.63
2023-05-19T02:34:16.598Z,120.77
2023-05-19T02:35:16.661Z,123.45
2023-05-19T02:36:16.728Z,122.21
2023-05-19T02:37:16.728Z,123.45
2023-05-19T02:38:16.760Z,121.11
2023-05-19T02:39:16.849Z,118.59
2023-05-19T02:40:16.887Z,123.71
2023-05-19T02:41:16.970Z,122.51
2023-05-19T02:42:16.996Z,119.01
2023-05-19T02:43:17.038Z,119.73
2023-05-19T02:44:17.120Z,121.49
2023-05-19T02:45:17.125Z,120.29
2023-05-19T02:46:17.251Z,121.02
2023-05-19T02:47:17.253Z,120.74
2023-05-19T02:48:17.314Z,119.44
2023-05-19T02:49:17.342Z,118.11
2023-05-19T02:50:17.412Z,120.71
2023-05-19T02:51:17.465Z,119.34
2023-05-19T02:52:17.517Z,124.19
2023-05-19T02:53:17.564Z,119.11
2023-05-19T02:54:17.613Z,120.93
2023-05-19T02:55:17.743Z,119.59
2023-05-19T02:56:17.739Z,120.97
2023-05-19T02:57:17.819Z,122.78
2023-05-19T02:58:17.846Z,120.54
2023-05-19T02:59:17.913Z,121.73
2023-05-19T03:00:17.954Z,121.40
2023-05-19T03:01:18.106Z,120.59
2023-05-19T03:02:18.093Z,119.96
2023-05-19T03:03:18.234Z,118.24
2023-05-19T03:04:18.165Z,121.12
2023-05-19T03:05:18.238Z,122.14
2023-05-19T03:06:18.305Z,118.72
2023-05-19T03:07:18.353Z,120.23
2023-05-19T03:08:18.394Z,118.81
2023-05-19T03:09:18.472Z,115.61
2023-05-19T03:10:18.511Z,117.60
2023-05-19T03:11:18.594Z,114.84
2023-05-19T03:12:18.656Z,113.89
2023-05-19T03:13:18.723Z,118.79
2023-05-19T03:14:18.847Z,117.21
2023-05-19T03:15:18.773Z,119.93
2023-05-19T03:16:18.911Z,116.09
2023-05-19T03:17:19.007Z,115.64
2023-05-19T03:18:18.996Z,113.49
2023-05-19T03:19:19.053Z,117.60
2023-05-19T03:20:19.066Z,113.96
2023-05-19T03:21:19.129Z,114.28
2023-05-19T03:22:19.174Z,112.71
2023-05-19T03:23:19.232Z,115.87
2023-05-19T03:24:19.298Z,114.27
2023-05-19T03:25:19.336Z,112.50
2023-05-19T03:26:19.363Z,115.63
2023-05-19T03:27:19.416Z,112.63
2023-05-19T03:28:19.460Z,112.13
2023-05-19T03:29:19.535Z,114.98
2023-05-19T03:30:19.559Z,114.15
2023-05-19T03:31:19.613Z,113.42
2023-05-19T03:32:19.751Z,113.89
2023-05-19T03:33:19.862Z,112.99
2023-05-19T03:34:19.775Z,112.58
2023-05-19T03:35:19.822Z,112.02
2023-05-19T03:36:19.885Z,111.52
2023-05-19T03:37:19.933Z,112.52
2023-05-19T03:38:19.957Z,110.81
2023-05-19T03:39:20.033Z,114.12
2023-05-19T03:40:20.071Z,115.33
2023-05-19T03:41:20.123Z,113.24
2023-05-19T03:42:20.166Z,111.96
2023-05-19T03:43:20.235Z,112.72
2023-05-19T03:44:20.278Z,109.66
2023-05-19T03:45:20.290Z,113.53
2023-05-19T03:46:20.524Z,113.53
2023-05-19T03:47:20.424Z,112.90
2023-05-19T03:48:21.372Z,108.58
2023-05-19T03:49:20.612Z,108.95
2023-05-19T03:50:20.602Z,113.37
2023-05-19T03:51:20.631Z,109.03
2023-05-19T03:52:20.720Z,113.84
2023-05-19T03:53:20.769Z,111.24
2023-05-19T03:54:20.765Z,112.93
2023-05-19T03:55:20.857Z,112.31
2023-05-19T03:56:20.893Z,111.93
2023-05-19T03:57:20.967Z,111.01
2023-05-19T03:58:21.014Z,112.92
2023-05-19T03:59:21.007Z,114.61
2023-05-19T04:00:21.054Z,111.80
2023-05-19T04:01:21.122Z,107.83
2023-05-19T04:02:21.209Z,112.94
2023-05-19T04:03:21.374Z,112.70
2023-05-19T04:04:21.282Z,105.16
2023-05-19T04:05:21.267Z,104.13
2023-05-19T04:06:21.321Z,95.85
2023-05-19T04:07:21.367Z,89.43
2023-05-19T04:08:21.395Z,81.16
2023-05-19T04:09:21.432Z,69.94
2023-05-19T04:10:21.483Z,62.02
2023-05-19T04:11:21.553Z,56.51
2023-05-19T04:12:21.582Z,51.08
2023-05-19T04:13:21.633Z,42.56
2023-05-19T04:14:21.651Z,39.15
2023-05-19T04:15:21.737Z,32.25
2023-05-19T04:16:21.834Z,25.00
2023-05-19T04:17:21.820Z,25.00
2023-05-19T04:18:21.871Z,25.00
2023-05-19T04:19:22.024Z,26.42
2023-05-19T04:20:21.978Z,25.37
2023-05-19T04:21:22.012Z,26.42
2023-05-19T04:22:22.069Z,25.44
2023-05-19T04:23:22.116Z,25.53
2023-05-19T04:24:22.180Z,25.99
2023-05-19T04:25:22.228Z,27.02
2023-05-19T04:26:22.277Z,26.29
2023-05-19T04:27:22.342Z,25.81
2023-05-19T04:28:22.389Z,26.27
2023-05-19T04:29:22.388Z,25.00
2023-05-19T04:30:22.735Z,25.00
2023-05-19T04:31:22.643Z,25.00
2023-05-19T04:32:22.582Z,27.31
2023-05-19T04:33:22.646Z,26.14
2023-05-19T04:34:22.689Z,29.96
2023-05-19T04:35:22.760Z,31.87
2023-05-19T04:36:22.854Z,29.60
2023-05-19T04:37:22.925Z,31.79
2023-05-19T04:38:22.964Z,35.90
2023-05-19T04:39:23.036Z,35.47
2023-05-19T04:40:23.048Z,36.10
2023-05-19T04:41:23.137Z,35.30
2023-05-19T04:42:23.210Z,35.09
2023-05-19T04:43:23.258Z,37.92
2023-05-19T04:44:23.327Z,39.66
2023-05-19T04:45:23.388Z,38.79
2023-05-19T04:46:23.453Z,41.12
2023-05-19T04:47:23.623Z,40.85
2023-05-19T04:48:23.592Z,42.43
2023-05-19T04:49:23.660Z,42.13
2023-05-19T04:50:23.709Z,42.61
2023-05-19T04:51:23.736Z,46.76
2023-05-19T04:52:23.886Z,41.91
2023-05-19T04:53:23.853Z,46.31
2023-05-19T04:54:23.949Z,48.49
2023-05-19T04:55:24.006Z,47.24
2023-05-19T04:56:24.036Z,44.43
2023-05-19T04:57:24.130Z,48.72
2023-05-19T04:58:24.168Z,49.55
2023-05-19T04:59:24.291Z,47.52
2023-05-19T05:00:24.325Z,52.04
2023-05-19T05:01:24.483Z,48.60
2023-05-19T05:02:24.478Z,53.52
2023-05-19T05:03:24.569Z,51.86
2023-05-19T05:04:24.588Z,54.54
2023-05-19T05:05:24.605Z,53.12
2023-05-19T05:06:24.648Z,54.52
2023-05-19T05:07:24.721Z,52.49
2023-05-19T05:08:24.751Z,54.52
2023-05-19T05:09:24.809Z,55.12
2023-05-19T05:10:24.866Z,57.27
2023-05-19T05:11:25.010Z,55.48
2023-05-19T05:12:24.980Z,55.51
2023-05-19T05:13:25.050Z,58.27
2023-05-19T05:14:25.104Z,56.56
2023-05-19T05:15:25.172Z,60.67
2023-05-19T05:16:25.237Z,59.87
2023-05-19T05:17:25.354Z,59.44
2023-05-19T05:18:25.278Z,62.46
2023-05-19T05:19:25.383Z,62.51
2023-05-19T05:20:25.400Z,60.68
2023-05-19T05:21:25.511Z,61.86
2023-05-19T05:22:25.564Z,63.12
2023-05-19T05:23:25.642Z,63.26
2023-05-19T05:24:25.627Z,62.94
2023-05-19T05:25:25.689Z,64.70
2023-05-19T05:26:25.752Z,61.25
2023-05-19T05:27:25.806Z,65.64
2023-05-19T05:28:25.873Z,66.36
2023-05-19T05:29:25.926Z,66.49
2023-05-19T05:30:25.928Z,67.03
2023-05-19T05:31:26.008Z,68.62
2023-05-19T05:32:26.127Z,69.18
2023-05-19T05:33:26.141Z,67.17
2023-05-19T05:34:26.120Z,69.04
2023-05-19T05:35:26.184Z,64.10
2023-05-19T05:36:26.274Z,67.72
2023-05-19T05:37:26.305Z,70.32
2023-05-19T05:38:26.354Z,70.89
2023-05-19T05:39:26.380Z,65.19
2023-05-19T05:40:26.424Z,70.91
2023-05-19T05:41:26.489Z,69.89
2023-05-19T05:42:28.917Z,70.88
2023-05-19T05:43:26.586Z,71.10
2023-05-19T05:44:26.542Z,72.34
2023-05-19T05:45:26.533Z,72.30
2023-05-19T05:46:26.615Z,73.64
2023-05-19T05:47:26.535Z,74.72
2023-05-19T05:48:26.531Z,74.15
2023-05-19T05:49:26.489Z,72.78
2023-05-19T05:50:26.494Z,71.11
2023-05-19T05:51:26.459Z,75.91
2023-05-19T05:52:26.485Z,73.83
2023-05-19T05:53:26.458Z,74.25
2023-05-19T05:54:26.455Z,77.04
2023-05-19T05:55:26.435Z,75.21
2023-05-19T05:56:26.446Z,76.19
2023-05-19T05:57:26.431Z,79.28
2023-05-19T05:58:26.411Z,79.53
2023-05-19T05:59:26.442Z,78.00
2023-05-19T06:00:26.452Z,80.60
2023-05-19T06:01:26.410Z,80.21
2023-05-19T06:02:26.486Z,79.90
2023-05-19T06:03:26.447Z,83.21
2023-05-19T06:04:26.387Z,82.56
2023-05-19T06:05:26.417Z,85.52
2023-05-19T06:06:26.365Z,81.62
2023-05-19T06:07:26.389Z,88.53
2023-05-19T06:08:26.371Z,83.84
2023-05-19T06:09:26.360Z,85.47
2023-05-19T06:10:26.355Z,85.88
2023-05-19T06:11:26.337Z,84.68
2023-05-19T06:12:26.368Z,85.91
2023-05-19T06:13:26.314Z,88.31
2023-05-19T06:14:26.314Z,87.94
2023-05-19T06:15:26.360Z,86.38
2023-05-19T06:16:26.315Z,88.96
2023-05-19T06:17:26.334Z,88.26
2023-05-19T06:18:26.290Z,90.67
2023-05-19T06:19:26.352Z,90.38
2023-05-19T06:20:26.342Z,89.14
2023-05-19T06:21:26.281Z,88.51
2023-05-19T06:22:26.296Z,90.31
2023-05-19T06:23:26.251Z,90.26
2023-05-19T06:24:26.256Z,94.02
2023-05-19T06:25:26.322Z,91.73
2023-05-19T06:26:26.339Z,88.95
2023-05-19T06:27:26.428Z,92.73
2023-05-19T06:28:26.450Z,89.00
2023-05-19T06:29:26.490Z,85.59
2023-05-19T06:30:26.553Z,91.14
2023-05-19T06:31:26.701Z,93.76
2023-05-19T06:32:26.672Z,93.01
2023-05-19T06:33:28.989Z,90.68
2023-05-19T06:34:26.957Z,92.31
2023-05-19T06:35:26.969Z,94.77
2023-05-19T06:36:27.057Z,94.79
2023-05-19T06:37:27.062Z,92.73
2023-05-19T06:38:27.105Z,91.36
2023-05-19T06:39:27.182Z,91.99
2023-05-19T06:40:27.235Z,92.23
2023-05-19T06:41:27.295Z,90.92
2023-05-19T06:42:27.306Z,96.04
2023-05-19T06:43:27.343Z,91.82
2023-05-19T06:44:27.357Z,97.24
2023-05-19T06:45:27.491Z,96.84
2023-05-19T06:46:27.528Z,96.38
2023-05-19T06:47:27.547Z,97.61
2023-05-19T06:48:27.561Z,95.32
2023-05-19T06:49:27.578Z,96.37
2023-05-19T06:50:27.718Z,99.42
2023-05-19T06:51:27.701Z,97.86
2023-05-19T06:52:27.712Z,101.01
2023-05-19T06:53:27.742Z,98.05
2023-05-19T06:54:27.785Z,96.84
2023-05-19T06:55:27.835Z,95.49
2023-05-19T06:56:27.907Z,98.58
2023-05-19T06:57:27.913Z,97.19
2023-05-19T06:58:27.992Z,94.49
2023-05-19T06:59:28.025Z,96.97
2023-05-19T07:00:28.025Z,97.44
2023-05-19T07:01:28.256Z,93.84
2023-05-19T07:02:28.158Z,99.40
2023-05-19T07:03:28.200Z,94.04
2023-05-19T07:04:28.197Z,99.28
2023-05-19T07:05:28.218Z,94.18
2023-05-19T07:06:28.280Z,96.91
2023-05-19T07:07:28.324Z,97.18
2023-05-19T07:08:28.335Z,95.34
2023-05-19T07:09:28.367Z,96.22
2023-05-19T07:10:28.420Z,95.14
2023-05-19T07:11:28.516Z,93.93
2023-05-19T07:12:28.539Z,96.80
2023-05-19T07:13:28.539Z,96.74
2023-05-19T07:14:28.623Z,98.39
2023-05-19T07:15:28.629Z,100.60
2023-05-19T07:16:28.691Z,95.47
2023-05-19T07:17:28.767Z,99.06
2023-05-19T07:18:28.716Z,102.36
2023-05-19T07:19:28.912Z,97.64
2023-05-19T07:20:28.832Z,96.54
2023-05-19T07:21:28.880Z,99.98
2023-05-19T07:22:28.921Z,103.84
2023-05-19T07:23:28.940Z,96.92
2023-05-19T07:24:28.978Z,99.57
2023-05-19T07:25:29.029Z,96.97
2023-05-19T07:26:29.039Z,94.39
2023-05-19T07:27:29.058Z,99.26
2023-05-19T07:28:29.152Z,89.94
2023-05-19T07:29:29.170Z,86.25
2023-05-19T07:30:29.234Z,89.26
2023-05-19T07:31:29.293Z,88.48
2023-05-19T07:32:29.312Z,86.34
2023-05-19T07:33:29.276Z,84.59
2023-05-19T07:34:29.334Z,81.86
2023-05-19T07:35:29.389Z,85.42
2023-05-19T07:36:29.407Z,87.06
2023-05-19T07:37:29.470Z,85.52
2023-05-19T07:38:29.486Z,85.62
2023-05-19T07:39:29.619Z,80.16
2023-05-19T07:40:29.657Z,82.54
2023-05-19T07:41:29.603Z,85.02
2023-05-19T07:42:29.675Z,83.59
2023-05-19T07:43:29.744Z,83.23
2023-05-19T07:44:29.728Z,84.40
2023-05-19T07:45:29.765Z,79.36
2023-05-19T07:46:29.875Z,82.38
2023-05-19T07:47:29.853Z,80.45
2023-05-19T07:48:29.902Z,82.87
2023-05-19T07:49:29.895Z,80.27
2023-05-19T07:50:29.988Z,79.71
2023-05-19T07:51:29.979Z,77.48
2023-05-19T07:52:30.016Z,83.18
2023-05-19T07:53:30.053Z,78.87
2023-05-19T07:54:30.072Z,80.43
2023-05-19T07:55:30.109Z,81.61
2023-05-19T07:56:30.155Z,82.01
2023-05-19T07:57:30.174Z,82.59
2023-05-19T07:58:30.222Z,77.94
2023-05-19T07:59:30.281Z,75.71
2023-05-19T08:00:30.298Z,81.38
2023-05-19T08:01:30.317Z,83.85
2023-05-19T08:02:30.404Z,78.60
2023-05-19T08:03:30.594Z,79.35
2023-05-19T08:04:30.454Z,80.57
2023-05-19T08:05:30.430Z,80.48
2023-05-19T08:06:30.463Z,80.07
2023-05-19T08:07:30.525Z,75.89
2023-05-19T08:08:30.545Z,82.06
2023-05-19T08:09:30.561Z,78.49
2023-05-19T08:10:30.729Z,79.36
2023-05-19T08:11:30.626Z,80.41
2023-05-19T08:12:30.682Z,77.81
2023-05-19T08:13:30.677Z,77.48
2023-05-19T08:14:30.720Z,78.22
2023-05-19T08:15:30.942Z,79.42
2023-05-19T08:16:30.837Z,77.27
2023-05-19T08:17:30.823Z,79.33
2023-05-19T08:18:30.865Z,76.99
2023-05-19T08:19:30.910Z,82.14
2023-05-19T08:20:31.021Z,78.17
2023-05-19T08:21:30.951Z,76.32
2023-05-19T08:22:30.979Z,78.49
2023-05-19T08:23:31.015Z,77.29
2023-05-19T08:24:31.037Z,80.67
2023-05-19T08:25:31.059Z,75.83
2023-05-19T08:26:31.132Z,77.24
2023-05-19T08:27:31.122Z,78.51
2023-05-19T08:28:31.138Z,82.35
2023-05-19T08:29:31.209Z,76.38
2023-05-19T08:30:31.362Z,74.68
2023-05-19T08:31:31.286Z,78.02
2023-05-19T08:32:31.365Z,74.56
2023-05-19T08:33:31.288Z,70.95
2023-05-19T08:34:31.297Z,68.67
2023-05-19T08:35:31.359Z,75.47
2023-05-19T08:36:31.376Z,73.75
2023-05-19T08:37:33.350Z,76.21
2023-05-19T08:38:31.423Z,72.58
2023-05-19T08:39:31.357Z,72.53
2023-05-19T08:40:31.741Z,73.33
2023-05-19T08:41:31.396Z,70.35
2023-05-19T08:42:31.349Z,69.11
2023-05-19T08:43:31.347Z,71.18
2023-05-19T08:44:31.366Z,71.28
2023-05-19T08:45:31.519Z,68.58
2023-05-19T08:46:31.354Z,73.63
2023-05-19T08:47:31.360Z,71.27
2023-05-19T08:48:31.316Z,74.39
2023-05-19T08:49:31.364Z,69.56
2023-05-19T08:50:31.534Z,70.03
2023-05-19T08:51:31.286Z,64.84
2023-05-19T08:52:31.300Z,69.96
2023-05-19T08:53:34.231Z,67.18
2023-05-19T08:54:31.279Z,67.60
2023-05-19T08:55:31.481Z,67.93
2023-05-19T08:56:31.218Z,68.27
2023-05-19T08:57:31.230Z,68.91
2023-05-19T08:58:31.245Z,68.04
2023-05-19T08:59:31.265Z,69.30
2023-05-19T09:00:31.648Z,70.72
2023-05-19T09:01:31.394Z,74.72
2023-05-19T09:02:31.249Z,74.21
2023-05-19T09:03:31.290Z,71.53
2023-05-19T09:04:31.285Z,71.78
2023-05-19T09:05:31.512Z,69.52
2023-05-19T09:06:31.186Z,68.57
2023-05-19T09:07:31.193Z,71.71
2023-05-19T09:08:31.160Z,70.51
2023-05-19T09:09:31.178Z,72.38
2023-05-19T09:10:31.184Z,75.31
2023-05-19T09:11:31.134Z,74.72
2023-05-19T09:12:31.169Z,76.00
2023-05-19T09:13:31.106Z,74.39
2023-05-19T09:14:31.138Z,77.78
2023-05-19T09:15:31.209Z,76.72
2023-05-19T09:16:31.170Z,79.10
2023-05-19T09:17:31.181Z,76.48
2023-05-19T09:18:31.111Z,78.26
2023-05-19T09:19:31.178Z,76.06
2023-05-19T09:20:31.102Z,72.13
2023-05-19T09:21:31.283Z,71.63
2023-05-19T09:22:31.068Z,76.14
2023-05-19T09:23:31.066Z,71.43
2023-05-19T09:24:31.060Z,70.55
2023-05-19T09:25:31.203Z,75.40
2023-05-19T09:26:31.017Z,78.28
2023-05-19T09:27:31.048Z,70.97
2023-05-19T09:28:31.073Z,69.81
2023-05-19T09:29:31.014Z,65.30
2023-05-19T09:30:30.992Z,63.71
2023-05-19T09:31:31.027Z,64.13
2023-05-19T09:32:31.076Z,65.39
2023-05-19T09:33:30.971Z,64.59
2023-05-19T09:34:30.998Z,65.03
2023-05-19T09:35:31.689Z,64.80
2023-05-19T09:36:30.966Z,66.45
2023-05-19T09:37:30.978Z,67.24
2023-05-19T09:38:30.961Z,65.96
2023-05-19T09:39:30.973Z,60.48
2023-05-19T09:40:30.981Z,60.56
2023-05-19T09:41:30.933Z,66.44
2023-05-19T09:42:30.925Z,66.78
2023-05-19T09:43:30.912Z,65.15
2023-05-19T09:44:30.935Z,60.51
2023-05-19T09:45:31.114Z,57.15
2023-05-19T09:46:30.993Z,56.53
2023-05-19T09:47:30.953Z,56.28
2023-05-19T09:48:30.913Z,61.32
2023-05-19T09:49:30.909Z,61.92
2023-05-19T09:50:30.880Z,58.22
2023-05-19T09:51:30.897Z,54.71
2023-05-19T09:52:30.879Z,51.21
2023-05-19T09:53:30.861Z,56.39
2023-05-19T09:54:30.863Z,59.03
2023-05-19T09:55:31.155Z,54.69
2023-05-19T09:56:30.823Z,58.75
2023-05-19T09:57:30.834Z,56.84
2023-05-19T09:58:30.819Z,53.77
2023-05-19T09:59:33.498Z,53.05
2023-05-19T10:00:31.021Z,58.35
2023-05-19T10:01:30.845Z,55.85
2023-05-19T10:02:30.831Z,58.49
2023-05-19T10:03:30.747Z,58.88
2023-05-19T10:04:30.818Z,58.93
2023-05-19T10:05:30.989Z,53.20
2023-05-19T10:06:30.827Z,59.20
2023-05-19T10:07:30.755Z,59.62
2023-05-19T10:08:30.980Z,58.02
2023-05-19T10:09:30.766Z,57.84
2023-05-19T10:10:30.776Z,52.70
2023-05-19T10:11:30.758Z,50.29
2023-05-19T10:12:30.713Z,49.78
2023-05-19T10:13:30.738Z,50.90
2023-05-19T10:14:30.687Z,48.28
2023-05-19T10:15:30.978Z,49.20
2023-05-19T10:16:30.791Z,50.82
2023-05-19T10:17:30.716Z,47.94
2023-05-19T10:18:30.679Z,47.95
2023-05-19T10:19:30.823Z,50.50
2023-05-19T10:20:31.035Z,50.08
2023-05-19T10:21:30.651Z,50.27
2023-05-19T10:22:30.659Z,53.25
2023-05-19T10:23:30.694Z,51.19
2023-05-19T10:24:30.633Z,47.29
2023-05-19T10:25:30.798Z,51.21
2023-05-19T10:26:30.606Z,48.89
2023-05-19T10:27:30.601Z,50.61
2023-05-19T10:28:30.629Z,50.85
2023-05-19T10:29:30.619Z,48.54
2023-05-19T10:30:30.594Z,49.57
2023-05-19T10:31:30.655Z,44.80
2023-05-19T10:32:30.657Z,43.72
2023-05-19T10:33:30.617Z,47.64
2023-05-19T10:34:30.560Z,47.46
2023-05-19T10:35:32.008Z,47.52
2023-05-19T10:36:30.572Z,47.20
2023-05-19T10:37:30.556Z,50.78
2023-05-19T10:38:30.579Z,44.15
2023-05-19T10:39:30.524Z,44.50
2023-05-19T10:40:30.536Z,43.62
2023-05-19T10:41:30.542Z,44.40
2023-05-19T10:42:30.519Z,45.01
2023-05-19T10:43:30.514Z,44.38
2023-05-19T10:44:30.492Z,44.65
2023-05-19T10:45:30.552Z,44.18
2023-05-19T10:46:30.548Z,39.37
2023-05-19T10:47:30.552Z,40.57
2023-05-19T10:48:30.466Z,40.34
2023-05-19T10:49:30.461Z,45.75
2023-05-19T10:50:30.479Z,37.83
2023-05-19T10:51:30.444Z,40.90
2023-05-19T10:52:30.455Z,40.97
2023-05-19T10:53:30.450Z,36.24
2023-05-19T10:54:30.462Z,37.09
2023-05-19T10:55:30.499Z,35.63
2023-05-19T10:56:30.423Z,35.17
2023-05-19T10:57:30.416Z,37.96
2023-05-19T10:58:30.407Z,39.91
2023-05-19T10:59:30.406Z,42.07
2023-05-19T11:00:30.405Z,43.24
2023-05-19T11:01:30.513Z,43.20
2023-05-19T11:02:30.386Z,46.02
2023-05-19T11:03:30.970Z,50.29
2023-05-19T11:04:30.455Z,53.60
2023-05-19T11:05:30.573Z,54.24
2023-05-19T11:06:30.503Z,56.09
2023-05-19T11:07:30.520Z,52.23
2023-05-19T11:08:30.595Z,59.06
2023-05-19T11:09:39.912Z,59.33
2023-05-19T11:10:31.671Z,59.68
2023-05-19T11:11:31.507Z,60.43
2023-05-19T11:12:30.628Z,62.33
2023-05-19T11:13:30.648Z,63.78
2023-05-19T11:14:30.602Z,69.37
2023-05-19T11:15:30.811Z,71.17
2023-05-19T11:16:30.673Z,68.51
2023-05-19T11:17:31.156Z,71.72
2023-05-19T11:18:30.628Z,73.12
2023-05-19T11:19:30.769Z,73.85
2023-05-19T11:20:30.752Z,72.10
2023-05-19T11:21:30.859Z,75.02
2023-05-19T11:22:30.825Z,79.08
2023-05-19T11:23:31.842Z,77.51
2023-05-19T11:24:30.960Z,78.80
2023-05-19T11:25:31.094Z,81.22
2023-05-19T11:26:31.025Z,82.82
2023-05-19T11:27:31.133Z,83.16
2023-05-19T11:28:31.158Z,84.11
2023-05-19T11:29:32.802Z,87.68
2023-05-19T11:30:31.254Z,85.76
2023-05-19T11:31:31.287Z,87.24
2023-05-19T11:32:31.380Z,90.55
2023-05-19T11:33:31.372Z,89.45
2023-05-19T11:34:31.418Z,91.02
2023-05-19T11:35:32.649Z,92.33
2023-05-19T11:36:31.573Z,92.07
2023-05-19T11:37:31.662Z,93.70
2023-05-19T11:38:31.667Z,93.83
2023-05-19T11:39:31.686Z,95.17
2023-05-19T11:40:31.728Z,93.78
2023-05-19T11:41:31.816Z,92.56
2023-05-19T11:42:31.864Z,96.10
2023-05-19T11:43:31.929Z,92.92
2023-05-19T11:44:31.943Z,96.68
2023-05-19T11:45:32.286Z,99.93
2023-05-19T11:46:32.103Z,98.48
2023-05-19T11:47:36.385Z,97.53
2023-05-19T11:48:33.164Z,97.81
2023-05-19T11:49:32.069Z,98.54
2023-05-19T11:50:32.095Z,99.08
2023-05-19T11:51:32.088Z,101.66
2023-05-19T11:52:32.089Z,103.01
2023-05-19T11:53:33.457Z,105.57
2023-05-19T11:54:32.044Z,105.95
2023-05-19T11:55:32.081Z,104.68
2023-05-19T11:56:32.041Z,107.25
2023-05-19T11:57:32.054Z,108.77
2023-05-19T11:58:32.039Z,108.27
2023-05-19T11:59:33.521Z,107.43
2023-05-19T12:00:32.033Z,107.68
2023-05-19T12:01:32.037Z,107.68
2023-05-19T12:02:32.030Z,108.45
2023-05-19T12:03:32.106Z,110.52
2023-05-19T12:04:32.058Z,107.90
2023-05-19T12:05:33.154Z,113.09
2023-05-19T12:06:32.020Z,113.17
2023-05-19T12:07:31.978Z,110.28
2023-05-19T12:08:31.959Z,113.14
2023-05-19T12:09:31.933Z,113.07
2023-05-19T12:10:31.985Z,114.76
2023-05-19T12:11:31.985Z,112.00
2023-05-19T12:12:31.931Z,112.78
2023-05-19T12:13:31.938Z,114.40
2023-05-19T12:14:31.938Z,112.08
2023-05-19T12:15:32.129Z,113.44
2023-05-19T12:16:33.279Z,113.62
2023-05-19T12:17:31.911Z,114.74
2023-05-19T12:18:31.893Z,116.10
2023-05-19T12:19:31.952Z,117.06
2023-05-19T12:20:31.900Z,116.99
2023-05-19T12:21:34.244Z,113.90
2023-05-19T12:22:32.045Z,115.53
2023-05-19T12:23:32.136Z,114.29
2023-05-19T12:24:32.137Z,116.27
2023-05-19T12:25:32.572Z,116.28
2023-05-19T12:26:32.216Z,114.73
2023-05-19T12:27:34.662Z,116.85
2023-05-19T12:28:32.413Z,117.86
2023-05-19T12:29:32.516Z,113.74
2023-05-19T12:30:33.191Z,114.71
2023-05-19T12:31:32.585Z,118.66
2023-05-19T12:32:32.651Z,116.53
2023-05-19T12:33:33.541Z,118.21
2023-05-19T12:34:32.622Z,118.50
2023-05-19T12:35:32.602Z,117.08
2023-05-19T12:36:32.603Z,118.53
2023-05-19T12:37:32.564Z,118.46
2023-05-19T12:38:32.565Z,118.42
2023-05-19T12:39:32.548Z,115.67
2023-05-19T12:40:33.023Z,117.15
2023-05-19T12:41:32.566Z,118.81
2023-05-19T12:42:32.555Z,120.94